createdAt,value
2023-03-20T00:02:00.726Z,17.42
2023-03-20T00:04:27.244Z,18.23
2023-03-20T00:06:53.569Z,13.98
2023-03-20T00:09:19.936Z,15.32
2023-03-20T00:11:51.387Z,16.00
2023-03-20T00:14:22.174Z,13.32
2023-03-20T00:16:49.629Z,12.65
2023-03-20T00:19:20.640Z,11.75
2023-03-20T00:21:47.723Z,18.50
2023-03-20T00:24:15.754Z,23.10
2023-03-20T00:26:44.176Z,23.55
2023-03-20T00:29:19.758Z,23.00
2023-03-20T00:31:46.118Z,20.30
2023-03-20T00:34:15.325Z,14.05
2023-03-20T00:36:41.782Z,14.40
2023-03-20T00:39:09.864Z,17.13
2023-03-20T00:41:39.130Z,15.50
2023-03-20T00:44:15.335Z,13.68
2023-03-20T00:46:43.772Z,21.55
2023-03-20T00:49:11.705Z,13.98
2023-03-20T00:51:39.572Z,15.82
2023-03-20T00:54:12.886Z,17.90
2023-03-20T00:56:46.078Z,14.82
2023-03-20T00:59:18.323Z,17.95
2023-03-20T01:01:45.227Z,16.55
2023-03-20T01:04:14.046Z,15.48
2023-03-20T01:06:40.381Z,16.63
2023-03-20T01:09:06.762Z,18.58
2023-03-20T01:11:33.505Z,17.42
2023-03-20T01:14:00.508Z,16.10
2023-03-20T01:16:27.203Z,16.20
2023-03-20T01:18:54.332Z,13.25
2023-03-20T01:21:21.273Z,16.02
2023-03-20T01:23:49.350Z,15.15
2023-03-20T01:26:23.323Z,11.98
2023-03-20T01:28:51.068Z,11.73
2023-03-20T01:31:18.791Z,14.10
2023-03-20T01:33:46.625Z,11.55
2023-03-20T01:36:15.767Z,13.07
2023-03-20T01:38:43.430Z,12.50
2023-03-20T01:41:16.487Z,13.20
2023-03-20T01:43:45.843Z,18.30
2023-03-20T01:46:18.486Z,12.48
2023-03-20T01:48:58.338Z,13.32
2023-03-20T01:51:32.827Z,15.15
2023-03-20T01:54:10.709Z,17.88
2023-03-20T01:56:51.968Z,13.63
2023-03-20T01:59:26.894Z,14.32
2023-03-20T02:01:53.988Z,14.07
2023-03-20T02:04:28.155Z,16.25
2023-03-20T02:07:00.974Z,17.88
2023-03-20T02:09:37.552Z,19.42
2023-03-20T02:12:08.975Z,17.15
2023-03-20T02:14:36.019Z,20.10
2023-03-20T02:17:13.507Z,22.08
2023-03-20T02:20:13.223Z,24.20
2023-03-20T02:23:17.124Z,33.33
2023-03-20T02:26:01.494Z,47.58
2023-03-20T02:29:14.902Z,77.60
2023-03-20T02:32:11.776Z,101.38
2023-03-20T02:34:44.400Z,105.60
2023-03-20T02:37:29.448Z,111.53
2023-03-20T02:40:22.327Z,101.90
2023-03-20T02:42:54.745Z,110.55
2023-03-20T02:45:53.805Z,104.72
2023-03-20T02:48:31.227Z,102.03
2023-03-20T02:51:12.234Z,97.95
2023-03-20T02:53:51.462Z,96.85
2023-03-20T02:56:57.745Z,97.22
2023-03-20T02:59:40.620Z,97.88
2023-03-20T03:02:09.405Z,97.63
2023-03-20T03:04:40.442Z,94.40
2023-03-20T03:07:09.953Z,95.85
2023-03-20T03:09:46.236Z,100.60
2023-03-20T03:12:17.964Z,94.60
2023-03-20T03:14:51.350Z,95.05
2023-03-20T03:17:19.957Z,87.60
2023-03-20T03:19:50.814Z,88.68
2023-03-20T03:22:18.372Z,93.05
2023-03-20T03:24:47.755Z,89.82
2023-03-20T03:27:27.073Z,88.83
2023-03-20T03:30:00.458Z,84.53
2023-03-20T03:32:30.362Z,90.68
2023-03-20T03:34:58.509Z,90.82
2023-03-20T03:37:56.242Z,90.03
2023-03-20T03:40:39.786Z,93.28
2023-03-20T03:43:18.191Z,84.78
2023-03-20T03:45:52.983Z,92.22
2023-03-20T03:48:27.263Z,90.40
2023-03-20T03:51:02.207Z,91.97
2023-03-20T03:53:33.860Z,88.40
2023-03-20T03:56:06.887Z,85.65
2023-03-20T03:58:39.904Z,85.63
2023-03-20T04:01:08.125Z,85.90
2023-03-20T04:03:39.395Z,89.53
2023-03-20T04:06:09.884Z,83.68
2023-03-20T04:08:36.281Z,90.35
2023-03-20T04:11:02.875Z,87.55
2023-03-20T04:13:29.432Z,87.07
2023-03-20T04:15:56.221Z,85.07
2023-03-20T04:18:24.965Z,85.32
2023-03-20T04:20:52.297Z,85.63
2023-03-20T04:23:18.587Z,84.35
2023-03-20T04:25:45.166Z,90.97
2023-03-20T04:28:11.806Z,86.57
2023-03-20T04:30:59.739Z,92.18
2023-03-20T04:33:51.202Z,95.43
2023-03-20T04:36:32.654Z,84.40
2023-03-20T04:38:59.262Z,90.05
2023-03-20T04:41:26.531Z,92.85
2023-03-20T04:43:55.542Z,84.88
2023-03-20T04:46:22.619Z,86.90
2023-03-20T04:48:48.986Z,94.03
2023-03-20T04:51:16.037Z,89.07
2023-03-20T04:53:49.098Z,89.03
2023-03-20T04:56:15.643Z,85.57
2023-03-20T04:58:42.032Z,84.70
2023-03-20T05:01:09.576Z,85.60
2023-03-20T05:03:35.899Z,85.60
2023-03-20T05:06:02.598Z,86.60
2023-03-20T05:08:29.625Z,78.55
2023-03-20T05:10:59.693Z,83.35
2023-03-20T05:13:44.490Z,83.15
2023-03-20T05:16:29.397Z,92.32
2023-03-20T05:19:18.936Z,87.35
2023-03-20T05:22:10.236Z,83.88
2023-03-20T05:24:48.466Z,78.28
2023-03-20T05:27:46.071Z,76.50
2023-03-20T05:30:48.091Z,72.93
2023-03-20T05:33:32.981Z,75.97
2023-03-20T05:36:16.131Z,85.32
2023-03-20T05:39:11.686Z,73.47
2023-03-20T05:42:04.341Z,77.45
2023-03-20T05:44:48.118Z,82.13
2023-03-20T05:47:40.659Z,85.15
2023-03-20T05:50:18.857Z,77.90
2023-03-20T05:52:59.180Z,79.57
2023-03-20T05:55:33.410Z,78.55
2023-03-20T05:58:12.864Z,77.95
2023-03-20T06:00:44.918Z,71.35
2023-03-20T06:06:17.741Z,68.85
2023-03-20T06:08:48.479Z,71.63
2023-03-20T06:11:15.884Z,78.43
2023-03-20T06:13:42.168Z,68.20
2023-03-20T06:16:10.271Z,70.32
2023-03-20T06:18:39.018Z,61.22
2023-03-20T06:21:07.442Z,65.75
2023-03-20T06:23:34.104Z,61.65
2023-03-20T06:26:01.878Z,62.05
2023-03-20T06:28:31.605Z,64.05
2023-03-20T06:31:04.192Z,61.05
2023-03-20T06:33:30.625Z,65.53
2023-03-20T06:35:59.310Z,58.58
2023-03-20T06:38:27.941Z,72.43
2023-03-20T06:40:54.389Z,60.35
2023-03-20T06:43:22.199Z,67.13
2023-03-20T06:45:52.141Z,68.13
2023-03-20T06:48:23.545Z,64.32
2023-03-20T06:50:51.349Z,66.85
2023-03-20T06:53:20.980Z,70.72
2023-03-20T06:55:54.735Z,67.35
2023-03-20T06:58:21.156Z,65.70
2023-03-20T07:00:50.311Z,69.90
2023-03-20T07:03:16.674Z,71.32
2023-03-20T07:05:45.754Z,65.95
2023-03-20T07:08:12.243Z,71.05
2023-03-20T07:10:38.933Z,73.95
2023-03-20T07:13:05.524Z,74.65
2023-03-20T07:15:33.037Z,65.25
2023-03-20T07:17:59.440Z,71.85
2023-03-20T07:20:27.541Z,68.88
2023-03-20T07:22:55.252Z,66.07
2023-03-20T07:25:39.420Z,70.82
2023-03-20T07:28:08.821Z,64.28
2023-03-20T07:30:37.308Z,76.35
2023-03-20T07:33:04.736Z,69.00
2023-03-20T07:35:33.456Z,61.58
2023-03-20T07:38:00.124Z,59.10
2023-03-20T07:40:26.942Z,53.00
2023-03-20T07:42:56.150Z,53.40
2023-03-20T07:45:40.951Z,57.53
2023-03-20T07:48:07.534Z,59.00
2023-03-20T07:50:34.194Z,53.75
2023-03-20T07:53:01.589Z,63.13
2023-03-20T07:55:27.950Z,58.75
2023-03-20T07:57:54.284Z,59.72
2023-03-20T08:00:20.942Z,57.53
2023-03-20T08:02:47.384Z,61.92
2023-03-20T08:05:13.763Z,54.20
2023-03-20T08:07:40.328Z,51.72
2023-03-20T08:10:07.332Z,50.78
2023-03-20T08:12:33.632Z,50.53
2023-03-20T08:14:59.924Z,54.47
2023-03-20T08:17:26.316Z,56.10
2023-03-20T08:19:52.733Z,53.72
2023-03-20T08:22:19.056Z,49.75
2023-03-20T08:24:45.394Z,48.53
2023-03-20T08:27:11.752Z,51.95
2023-03-20T08:29:38.170Z,53.08
2023-03-20T08:32:04.828Z,68.80
2023-03-20T08:34:33.396Z,65.82
2023-03-20T08:36:59.735Z,58.75
2023-03-20T08:39:26.563Z,66.50
2023-03-20T08:41:52.945Z,59.63
2023-03-20T08:44:19.297Z,50.70
2023-03-20T08:46:46.539Z,58.50
2023-03-20T08:49:13.317Z,69.93
2023-03-20T08:51:39.678Z,65.45
2023-03-20T08:54:06.051Z,59.42
2023-03-20T08:56:32.436Z,61.65
2023-03-20T08:58:58.777Z,51.97
2023-03-20T09:01:32.572Z,65.25
2023-03-20T09:04:04.991Z,62.88
2023-03-20T09:06:32.812Z,62.47
2023-03-20T09:08:59.113Z,58.13
2023-03-20T09:11:25.495Z,59.78
2023-03-20T09:13:52.000Z,51.72
2023-03-20T09:16:18.520Z,53.65
2023-03-20T09:18:44.858Z,47.92
2023-03-20T09:21:11.251Z,49.97
2023-03-20T09:23:37.573Z,55.83
2023-03-20T09:26:04.150Z,54.28
2023-03-20T09:28:30.597Z,51.30
2023-03-20T09:30:58.414Z,49.13
2023-03-20T09:33:26.094Z,49.70
2023-03-20T09:35:52.523Z,47.58
2023-03-20T09:38:19.080Z,54.75
2023-03-20T09:41:23.059Z,58.90
2023-03-20T09:44:08.146Z,51.63
2023-03-20T09:46:49.881Z,50.70
2023-03-20T09:49:51.882Z,39.50
2023-03-20T09:52:27.253Z,42.63
2023-03-20T09:55:02.178Z,36.10
2023-03-20T09:57:35.813Z,32.00
2023-03-20T10:00:07.839Z,29.88
2023-03-20T10:03:00.061Z,27.30
2023-03-20T10:05:29.054Z,45.40
2023-03-20T10:07:59.199Z,68.47
2023-03-20T10:10:48.617Z,90.03
2023-03-20T10:13:53.959Z,290.30
2023-03-20T10:16:55.580Z,151.88
2023-03-20T10:19:31.101Z,67.97
2023-03-20T10:22:15.383Z,40.47
2023-03-20T10:24:49.729Z,18.90
2023-03-20T10:27:27.671Z,17.85
2023-03-20T10:30:51.908Z,20.70
2023-03-20T10:33:28.262Z,15.93
2023-03-20T10:36:24.132Z,15.95
2023-03-20T10:38:55.718Z,16.85
2023-03-20T10:41:28.524Z,18.60
2023-03-20T10:43:57.582Z,17.05
2023-03-20T10:46:28.508Z,16.40
2023-03-20T10:49:12.879Z,13.35
2023-03-20T10:51:47.436Z,20.23
2023-03-20T10:54:43.413Z,16.75
2023-03-20T10:57:21.033Z,12.90
2023-03-20T10:59:50.496Z,12.18
2023-03-20T11:02:19.797Z,12.02
2023-03-20T11:04:46.560Z,13.60
2023-03-20T11:07:35.892Z,11.35
2023-03-20T11:10:05.183Z,12.95
2023-03-20T11:12:37.636Z,12.27
2023-03-20T11:15:18.439Z,17.48
2023-03-20T11:17:54.327Z,15.07
2023-03-20T11:20:20.781Z,14.43
2023-03-20T11:22:49.798Z,15.07
2023-03-20T11:25:28.245Z,12.70
2023-03-20T11:27:56.416Z,16.75
2023-03-20T11:30:23.050Z,18.90
2023-03-20T11:32:55.647Z,14.43
2023-03-20T11:35:27.934Z,10.07
2023-03-20T11:38:06.782Z,11.27
2023-03-20T11:40:33.694Z,9.43
2023-03-20T11:43:00.114Z,10.18
2023-03-20T11:45:28.847Z,9.18
2023-03-20T11:47:56.990Z,10.02
2023-03-20T11:50:38.280Z,7.43
2023-03-20T11:53:22.326Z,8.88
2023-03-20T11:56:03.597Z,7.45
2023-03-20T12:00:57.076Z,7.35
2023-03-20T12:03:42.166Z,12.93
2023-03-20T12:06:16.280Z,9.90
2023-03-20T12:08:48.734Z,10.57
2023-03-20T12:11:53.935Z,8.52
2023-03-20T12:14:30.632Z,12.00
2023-03-20T12:17:13.562Z,9.82
2023-03-20T12:19:41.343Z,7.07
2023-03-20T12:22:19.896Z,8.60
2023-03-20T12:24:56.539Z,8.57
2023-03-20T12:27:33.498Z,7.38
2023-03-20T12:30:12.814Z,9.10
2023-03-20T12:33:10.021Z,6.55
2023-03-20T12:35:40.583Z,5.70
2023-03-20T12:38:22.260Z,4.28
2023-03-20T12:40:53.604Z,8.40
2023-03-20T12:43:27.415Z,5.80
2023-03-20T12:46:11.529Z,6.00
2023-03-20T12:48:51.904Z,4.15
2023-03-20T12:51:40.346Z,8.17
2023-03-20T12:54:19.538Z,4.13
2023-03-20T12:57:11.392Z,4.95
2023-03-20T13:00:02.728Z,5.65
2023-03-20T13:05:41.418Z,5.80
2023-03-20T13:08:33.591Z,7.13
2023-03-20T13:11:11.195Z,4.05
2023-03-20T13:13:58.960Z,4.82
2023-03-20T13:16:57.904Z,2.88
2023-03-20T13:19:30.417Z,5.32
2023-03-20T13:22:06.832Z,4.43
2023-03-20T13:24:38.741Z,4.88
2023-03-20T13:27:31.378Z,4.93
2023-03-20T13:30:31.238Z,3.10
2023-03-20T13:33:20.437Z,4.40
2023-03-20T13:35:59.685Z,4.82
2023-03-20T13:38:40.910Z,8.40
2023-03-20T13:41:09.715Z,5.93
2023-03-20T13:43:49.084Z,3.45
2023-03-20T13:46:23.671Z,2.20
2023-03-20T13:48:53.081Z,5.00
2023-03-20T13:51:38.189Z,6.07
2023-03-20T13:54:26.636Z,1.58
2023-03-20T13:56:56.544Z,5.68
2023-03-20T13:59:44.406Z,3.30
2023-03-20T14:02:36.567Z,4.90
2023-03-20T14:05:17.430Z,4.70
2023-03-20T14:07:46.380Z,3.55
2023-03-20T14:10:21.767Z,5.97
2023-03-20T14:12:59.665Z,6.40
2023-03-20T14:15:34.134Z,4.30
2023-03-20T14:18:05.578Z,6.97
2023-03-20T14:20:41.086Z,3.33
2023-03-20T14:23:17.465Z,3.80
2023-03-20T14:25:44.306Z,4.60
2023-03-20T14:28:10.729Z,4.53
2023-03-20T14:30:40.835Z,6.05
2023-03-20T14:33:24.594Z,5.63
2023-03-20T14:36:09.873Z,4.97
2023-03-20T14:39:01.691Z,7.28
2023-03-20T14:41:49.732Z,6.47
2023-03-20T14:44:46.979Z,4.60
2023-03-20T14:47:31.924Z,7.28
2023-03-20T14:50:18.632Z,6.32
2023-03-20T14:52:52.576Z,7.65
2023-03-20T14:55:22.315Z,5.60
2023-03-20T14:57:56.704Z,7.05
2023-03-20T15:00:25.642Z,4.03
2023-03-20T15:02:57.763Z,6.88
2023-03-20T15:05:30.674Z,8.07
2023-03-20T15:08:03.183Z,7.38
2023-03-20T15:10:29.813Z,5.50
2023-03-20T15:12:57.943Z,4.50
2023-03-20T15:15:31.502Z,5.35
2023-03-20T15:18:04.700Z,8.65
2023-03-20T15:20:31.779Z,5.13
2023-03-20T15:23:02.403Z,8.52
2023-03-20T15:25:33.777Z,4.63
2023-03-20T15:28:00.538Z,8.38
2023-03-20T15:30:31.856Z,5.22
2023-03-20T15:32:58.869Z,7.15
2023-03-20T15:35:27.050Z,7.38
2023-03-20T15:37:56.123Z,5.45
2023-03-20T15:40:37.111Z,8.13
2023-03-20T15:43:24.758Z,7.60
2023-03-20T15:46:02.958Z,6.65
2023-03-20T15:48:33.025Z,10.27
2023-03-20T15:51:04.881Z,8.13
2023-03-20T15:53:39.131Z,9.15
2023-03-20T15:56:17.828Z,10.55
2023-03-20T15:58:46.953Z,8.25
2023-03-20T16:01:19.719Z,10.27
2023-03-20T16:03:46.644Z,8.95
2023-03-20T16:06:16.422Z,7.85
2023-03-20T16:08:43.485Z,7.20
2023-03-20T16:11:15.511Z,8.52
2023-03-20T16:13:47.599Z,7.35
2023-03-20T16:16:21.038Z,10.48
2023-03-20T16:18:48.151Z,11.30
2023-03-20T16:21:38.002Z,6.28
2023-03-20T16:24:13.975Z,9.63
2023-03-20T16:26:44.195Z,9.82
2023-03-20T16:29:14.828Z,5.60
2023-03-20T16:31:48.395Z,5.32
2023-03-20T16:34:21.960Z,6.15
2023-03-20T16:36:57.606Z,6.45
2023-03-20T16:39:27.807Z,7.82
2023-03-20T16:42:03.538Z,7.00
2023-03-20T16:44:35.237Z,11.00
2023-03-20T16:47:17.020Z,7.20
2023-03-20T16:49:52.506Z,7.32
2023-03-20T16:52:30.085Z,7.05
2023-03-20T16:54:58.413Z,8.45
2023-03-20T16:57:26.943Z,7.15
2023-03-20T16:59:58.621Z,8.20
2023-03-20T17:02:29.597Z,7.03
2023-03-20T17:05:01.138Z,8.45
2023-03-20T17:07:28.384Z,4.82
2023-03-20T17:09:59.141Z,10.00
2023-03-20T17:12:30.936Z,7.40
2023-03-20T17:14:57.231Z,6.28
2023-03-20T17:17:24.943Z,7.35
2023-03-20T17:19:51.810Z,13.05
2023-03-20T17:22:26.471Z,8.70
2023-03-20T17:24:52.849Z,9.43
2023-03-20T17:27:20.584Z,9.10
2023-03-20T17:29:49.569Z,6.82
2023-03-20T17:32:23.654Z,23.17
2023-03-20T17:34:50.648Z,15.98
2023-03-20T17:37:27.770Z,9.95
2023-03-20T17:39:55.543Z,20.02
2023-03-20T17:42:26.458Z,84.20
2023-03-20T17:44:53.184Z,64.13
2023-03-20T17:47:22.011Z,22.48
2023-03-20T17:49:48.845Z,26.30
2023-03-20T17:52:19.160Z,15.88
2023-03-20T17:54:46.800Z,13.00
2023-03-20T17:57:23.742Z,15.07
2023-03-20T17:59:50.479Z,9.45
2023-03-20T18:02:18.172Z,27.88
2023-03-20T18:04:45.757Z,13.98
2023-03-20T18:07:12.625Z,23.83
2023-03-20T18:09:43.264Z,18.90
2023-03-20T18:12:12.571Z,18.38
2023-03-20T18:14:40.744Z,14.05
2023-03-20T18:17:07.443Z,13.18
2023-03-20T18:19:33.898Z,15.48
2023-03-20T18:22:00.592Z,14.27
2023-03-20T18:24:27.128Z,19.27
2023-03-20T18:26:54.958Z,20.45
2023-03-20T18:29:21.333Z,13.45
2023-03-20T18:31:49.069Z,23.85
2023-03-20T18:34:16.065Z,21.35
2023-03-20T18:36:43.722Z,19.20
2023-03-20T18:39:16.937Z,30.90
2023-03-20T18:41:43.664Z,38.92
2023-03-20T18:44:10.021Z,55.08
2023-03-20T18:46:36.389Z,40.53
2023-03-20T18:49:02.869Z,40.72
2023-03-20T18:51:29.236Z,20.00
2023-03-20T18:53:55.598Z,14.85
2023-03-20T18:56:25.264Z,22.30
2023-03-20T18:58:52.740Z,17.25
2023-03-20T19:01:20.179Z,17.13
2023-03-20T19:03:47.605Z,15.65
2023-03-20T19:06:15.548Z,25.77
2023-03-20T19:08:42.426Z,37.30
2023-03-20T19:11:14.838Z,44.38
2023-03-20T19:13:49.594Z,25.42
2023-03-20T19:16:19.034Z,8.55
2023-03-20T19:18:45.792Z,45.72
2023-03-20T19:21:12.148Z,21.88
2023-03-20T19:23:38.423Z,18.02
2023-03-20T19:26:06.276Z,12.45
2023-03-20T19:28:40.520Z,14.45
2023-03-20T19:31:09.396Z,12.35
2023-03-20T19:33:37.282Z,8.20
2023-03-20T19:36:04.917Z,7.88
2023-03-20T19:38:32.591Z,7.80
2023-03-20T19:41:00.113Z,9.88
2023-03-20T19:43:28.852Z,9.48
2023-03-20T19:45:58.553Z,9.50
2023-03-20T19:48:43.224Z,8.07
2023-03-20T19:51:21.529Z,11.27
2023-03-20T19:53:48.908Z,6.63
2023-03-20T19:56:16.828Z,11.55
2023-03-20T19:58:43.494Z,11.25
2023-03-20T20:01:22.645Z,5.82
2023-03-20T20:03:50.436Z,8.55
2023-03-20T20:06:18.977Z,9.00
2023-03-20T20:08:49.270Z,7.00
2023-03-20T20:11:18.336Z,8.73
2023-03-20T20:14:04.855Z,10.48
2023-03-20T20:16:32.702Z,8.02
2023-03-20T20:18:59.100Z,13.80
2023-03-20T20:22:13.287Z,8.43
2023-03-20T20:24:12.292Z,11.90
2023-03-20T20:26:45.239Z,20.35
2023-03-20T20:29:15.799Z,18.02
2023-03-20T20:31:42.215Z,17.35
2023-03-20T20:35:14.310Z,13.48
2023-03-20T20:39:41.407Z,12.52
2023-03-20T20:42:07.881Z,22.02
2023-03-20T20:44:34.612Z,35.42
2023-03-20T20:47:01.010Z,39.88
2023-03-20T20:49:27.554Z,21.08
2023-03-20T20:51:53.889Z,74.13
2023-03-20T20:54:20.223Z,33.38
2023-03-20T20:56:46.609Z,35.83
2023-03-20T20:59:13.015Z,41.58
2023-03-20T21:01:39.432Z,21.67
2023-03-20T21:04:05.849Z,15.30
2023-03-20T21:06:58.220Z,20.08
2023-03-20T21:09:19.221Z,37.25
2023-03-20T21:11:46.293Z,31.27
2023-03-20T21:14:14.095Z,19.67
2023-03-20T21:16:40.445Z,17.52
2023-03-20T21:19:06.936Z,15.10
2023-03-20T21:21:34.877Z,16.00
2023-03-20T21:24:01.798Z,13.93
2023-03-20T21:26:28.149Z,16.52
2023-03-20T21:28:54.518Z,13.35
2023-03-20T21:31:29.334Z,15.10
2023-03-20T21:33:57.753Z,28.95
2023-03-20T21:36:24.516Z,22.20
2023-03-20T21:39:07.509Z,31.45
2023-03-20T21:41:36.238Z,16.80
2023-03-20T21:44:03.698Z,25.23
2023-03-20T21:47:06.972Z,24.58
2023-03-20T21:50:07.728Z,20.52
2023-03-20T22:03:11.620Z,16.40
2023-03-20T22:06:24.080Z,13.77
2023-03-20T22:25:46.373Z,16.25
2023-03-20T22:28:34.370Z,15.20
2023-03-20T22:34:20.112Z,12.82
2023-03-20T22:39:40.882Z,18.60
2023-03-20T22:42:28.579Z,26.60
2023-03-20T22:45:00.112Z,12.02
2023-03-20T22:47:21.668Z,7.68
2023-03-20T22:49:47.971Z,25.88
2023-03-20T22:52:29.062Z,28.77
2023-03-20T22:55:00.612Z,51.33
2023-03-20T22:57:40.257Z,42.85
2023-03-20T23:00:11.014Z,48.40
2023-03-20T23:02:37.352Z,33.28
2023-03-20T23:05:04.115Z,67.93
2023-03-20T23:07:30.483Z,108.53
2023-03-20T23:09:58.035Z,80.07
2023-03-20T23:12:24.347Z,51.75
2023-03-20T23:14:50.686Z,37.30
2023-03-20T23:17:16.954Z,28.92
2023-03-20T23:19:56.517Z,28.13
2023-03-20T23:22:28.267Z,29.48
2023-03-20T23:24:57.328Z,52.03
2023-03-20T23:27:26.177Z,38.75
2023-03-20T23:29:52.526Z,51.30
2023-03-20T23:32:18.873Z,37.88
2023-03-20T23:34:45.181Z,21.27
2023-03-20T23:37:11.626Z,24.38
2023-03-20T23:39:37.957Z,20.75
2023-03-20T23:42:17.354Z,109.95
2023-03-20T23:44:55.408Z,24.50
2023-03-20T23:47:25.653Z,19.58
2023-03-20T23:49:53.915Z,16.92
2023-03-20T23:52:20.431Z,17.27
2023-03-20T23:54:46.719Z,11.48
2023-03-20T23:57:13.035Z,17.00
2023-03-20T23:59:39.488Z,16.23
